createdAt,value
2019-01-13T00:01:02.664Z,0.38
2019-01-13T00:03:32.453Z,0.38
2019-01-13T00:06:02.257Z,-0.44
2019-01-13T00:08:32.801Z,0.40
2019-01-13T00:11:02.509Z,0.40
2019-01-13T00:13:32.426Z,0.44
2019-01-13T00:16:02.244Z,0.45
2019-01-13T00:18:32.035Z,0.45
2019-01-13T00:21:01.756Z,0.53
2019-01-13T00:23:31.359Z,0.53
2019-01-13T00:26:01.111Z,0.53
2019-01-13T00:28:30.915Z,0.57
2019-01-13T00:31:00.613Z,0.60
2019-01-13T00:33:30.417Z,0.42
2019-01-13T00:36:00.216Z,0.44
2019-01-13T00:38:29.877Z,0.43
2019-01-13T00:40:59.671Z,0.48
2019-01-13T00:43:29.420Z,0.47
2019-01-13T00:45:59.189Z,0.52
2019-01-13T00:48:28.989Z,0.52
2019-01-13T00:50:58.774Z,0.57
2019-01-13T00:53:28.501Z,0.52
2019-01-13T00:55:58.172Z,0.49
2019-01-13T00:58:27.925Z,0.55
2019-01-13T01:00:57.803Z,0.47
2019-01-13T01:03:27.585Z,0.42
2019-01-13T01:05:57.282Z,0.47
2019-01-13T01:08:27.062Z,0.47
2019-01-13T01:10:56.868Z,0.46
2019-01-13T01:13:26.568Z,0.44
2019-01-13T01:15:56.348Z,0.45
2019-01-13T01:18:26.132Z,0.46
2019-01-13T01:20:55.964Z,0.45
2019-01-13T01:23:25.702Z,0.45
2019-01-13T01:25:55.441Z,0.44
2019-01-13T01:28:25.251Z,0.36
2019-01-13T01:30:55.059Z,0.39
2019-01-13T01:33:26.080Z,0.39
2019-01-13T01:35:56.677Z,0.30
2019-01-13T01:38:26.550Z,0.30
2019-01-13T01:40:56.302Z,0.30
2019-01-13T01:43:26.145Z,0.33
2019-01-13T01:45:55.843Z,0.33
2019-01-13T01:48:25.998Z,0.29
2019-01-13T01:50:55.750Z,0.29
2019-01-13T01:53:25.520Z,0.33
2019-01-13T01:55:55.326Z,0.34
2019-01-13T01:58:25.056Z,0.37
2019-01-13T02:00:56.027Z,0.30
2019-01-13T02:03:26.005Z,0.23
2019-01-13T02:05:55.805Z,0.18
2019-01-13T02:08:25.607Z,0.16
2019-01-13T02:10:55.364Z,0.14
2019-01-13T02:13:25.053Z,0.12
2019-01-13T02:15:54.867Z,0.11
2019-01-13T02:18:24.535Z,0.08
2019-01-13T02:20:54.342Z,0.06
2019-01-13T02:23:24.096Z,0.09
2019-01-13T02:25:53.893Z,0.15
2019-01-13T02:28:23.725Z,0.17
2019-01-13T02:30:53.487Z,0.16
2019-01-13T02:33:23.216Z,0.21
2019-01-13T02:35:52.992Z,0.22
2019-01-13T02:38:22.677Z,0.20
2019-01-13T02:40:52.417Z,0.18
2019-01-13T02:43:22.198Z,0.16
2019-01-13T02:45:51.872Z,0.14
2019-01-13T02:48:21.688Z,0.11
2019-01-13T02:50:51.473Z,0.11
2019-01-13T02:53:21.185Z,0.03
2019-01-13T02:55:50.988Z,0.03
2019-01-13T02:58:20.704Z,0.05
2019-01-13T03:00:57.116Z,0.01
2019-01-13T03:03:22.021Z,-0.02
2019-01-13T03:05:51.783Z,-0.13
2019-01-13T03:08:21.486Z,-0.13
2019-01-13T03:10:51.269Z,-0.18
2019-01-13T03:13:21.032Z,-0.33
2019-01-13T03:15:50.836Z,-0.20
2019-01-13T03:18:20.781Z,-0.27
2019-01-13T03:20:50.584Z,-0.28
2019-01-13T03:23:20.687Z,-0.44
2019-01-13T03:25:50.511Z,-0.44
2019-01-13T03:28:20.282Z,-0.44
2019-01-13T03:30:50.121Z,-0.64
2019-01-13T03:33:19.909Z,-0.64
2019-01-13T03:35:49.597Z,-0.61
2019-01-13T03:38:19.415Z,-0.68
2019-01-13T03:40:49.112Z,-0.74
2019-01-13T03:43:18.821Z,-0.74
2019-01-13T03:45:48.618Z,-0.77
2019-01-13T03:48:18.330Z,-0.90
2019-01-13T03:50:48.040Z,-0.92
2019-01-13T03:53:17.754Z,-0.93
2019-01-13T03:55:47.528Z,-0.74
2019-01-13T03:58:17.587Z,-0.87
2019-01-13T04:00:47.291Z,-0.92
2019-01-13T04:03:16.987Z,-0.91
2019-01-13T04:05:46.826Z,-0.88
2019-01-13T04:08:16.479Z,-0.91
2019-01-13T04:10:46.274Z,-0.90
2019-01-13T04:13:16.125Z,-0.94
2019-01-13T04:15:45.838Z,-0.91
2019-01-13T04:18:15.636Z,-0.87
2019-01-13T04:20:45.379Z,-0.79
2019-01-13T04:23:15.095Z,-0.47
2019-01-13T04:25:44.808Z,-0.48
2019-01-13T04:28:14.626Z,-0.56
2019-01-13T04:30:44.413Z,-0.58
2019-01-13T04:33:14.216Z,-0.65
2019-01-13T04:35:43.990Z,-0.71
2019-01-13T04:38:13.811Z,-0.75
2019-01-13T04:40:44.541Z,-0.75
2019-01-13T04:43:14.834Z,-0.83
2019-01-13T04:45:48.421Z,-0.71
2019-01-13T04:48:18.208Z,-0.71
2019-01-13T04:50:47.930Z,-0.77
2019-01-13T04:53:17.733Z,-0.81
2019-01-13T04:55:47.549Z,-0.77
2019-01-13T04:58:17.383Z,-0.89
2019-01-13T05:00:47.169Z,-0.89
2019-01-13T05:03:16.872Z,-0.91
2019-01-13T05:05:46.692Z,-0.91
2019-01-13T05:08:16.310Z,-0.93
2019-01-13T05:10:46.155Z,-0.96
2019-01-13T05:13:15.949Z,-1.04
2019-01-13T05:15:45.805Z,-1.03
2019-01-13T05:18:15.763Z,-1.09
2019-01-13T05:20:45.371Z,-1.12
2019-01-13T05:23:15.163Z,-1.07
2019-01-13T05:25:45.111Z,-1.07
2019-01-13T05:28:14.930Z,-1.07
2019-01-13T05:30:44.555Z,-1.12
2019-01-13T05:33:14.347Z,-1.10
2019-01-13T05:35:44.225Z,-1.04
2019-01-13T05:38:13.907Z,-1.11
2019-01-13T05:40:43.665Z,-1.17
2019-01-13T05:43:13.470Z,-1.25
2019-01-13T05:45:43.259Z,-1.25
2019-01-13T05:48:12.994Z,-1.27
2019-01-13T05:50:42.814Z,-1.34
2019-01-13T05:53:12.685Z,-1.38
2019-01-13T05:55:42.503Z,-1.40
2019-01-13T05:58:12.169Z,-1.43
2019-01-13T06:00:42.444Z,-1.46
2019-01-13T06:03:13.331Z,-1.52
2019-01-13T06:05:43.188Z,-1.55
2019-01-13T06:08:12.962Z,-1.80
2019-01-13T06:10:42.694Z,-1.76
2019-01-13T06:13:12.578Z,-1.77
2019-01-13T06:15:42.294Z,-1.77
2019-01-13T06:18:12.040Z,-1.77
2019-01-13T06:20:41.831Z,-1.85
2019-01-13T06:23:11.544Z,-1.83
2019-01-13T06:25:41.317Z,-1.76
2019-01-13T06:28:11.120Z,-1.80
2019-01-13T06:30:40.924Z,-1.79
2019-01-13T06:33:10.696Z,-1.79
2019-01-13T06:35:40.514Z,-1.78
2019-01-13T06:38:10.273Z,-1.85
2019-01-13T06:40:40.046Z,-2.03
2019-01-13T06:43:09.790Z,-2.03
2019-01-13T06:45:39.626Z,-2.00
2019-01-13T06:48:09.491Z,-1.95
2019-01-13T06:50:39.197Z,-1.94
2019-01-13T06:53:09.019Z,-1.90
2019-01-13T06:55:38.811Z,-1.84
2019-01-13T06:58:08.491Z,-1.76
2019-01-13T07:00:38.362Z,-1.73
2019-01-13T07:03:08.130Z,-1.64
2019-01-13T07:05:37.865Z,-1.50
2019-01-13T07:08:07.621Z,-1.33
2019-01-13T07:10:37.401Z,-1.26
2019-01-13T07:13:07.155Z,-0.64
2019-01-13T07:15:36.887Z,-0.05
2019-01-13T07:18:06.497Z,0.80
2019-01-13T07:20:36.325Z,0.95
2019-01-13T07:23:06.023Z,1.02
2019-01-13T07:25:35.722Z,1.02
2019-01-13T07:28:05.550Z,0.90
2019-01-13T07:30:35.315Z,0.83
2019-01-13T07:33:05.124Z,0.64
2019-01-13T07:35:34.744Z,0.50
2019-01-13T07:38:04.438Z,0.29
2019-01-13T07:40:34.188Z,0.19
2019-01-13T07:43:04.045Z,0.15
2019-01-13T07:45:33.817Z,0.09
2019-01-13T07:48:03.787Z,0.05
2019-01-13T07:50:33.588Z,0.07
2019-01-13T07:53:03.325Z,0.07
2019-01-13T07:55:33.063Z,0.17
2019-01-13T07:58:02.826Z,0.30
2019-01-13T08:00:32.660Z,0.46
2019-01-13T08:03:02.472Z,0.46
2019-01-13T08:05:32.252Z,1.26
2019-01-13T08:08:02.291Z,1.32
2019-01-13T08:10:32.072Z,1.42
2019-01-13T08:13:02.474Z,1.42
2019-01-13T08:15:32.645Z,1.74
2019-01-13T08:18:02.474Z,1.74
2019-01-13T08:20:32.972Z,1.88
2019-01-13T08:23:03.090Z,2.12
2019-01-13T08:25:32.894Z,2.29
2019-01-13T08:28:02.587Z,2.65
2019-01-13T08:30:32.342Z,2.64
2019-01-13T08:33:02.040Z,2.83
2019-01-13T08:35:33.434Z,3.06
2019-01-13T08:38:03.227Z,3.27
2019-01-13T08:40:32.950Z,3.59
2019-01-13T08:43:02.684Z,3.74
2019-01-13T08:45:32.437Z,3.73
2019-01-13T08:48:02.079Z,3.91
2019-01-13T08:50:31.773Z,4.14
2019-01-13T08:53:01.590Z,4.34
2019-01-13T08:55:31.408Z,4.50
2019-01-13T08:58:01.208Z,4.66
2019-01-13T09:00:31.524Z,4.73
2019-01-13T09:03:01.343Z,4.67
2019-01-13T09:05:31.120Z,4.84
2019-01-13T09:08:00.838Z,4.85
2019-01-13T09:10:30.796Z,5.02
2019-01-13T09:13:00.591Z,5.10
2019-01-13T09:15:30.565Z,5.09
2019-01-13T09:18:00.375Z,5.06
2019-01-13T09:20:30.541Z,5.17
2019-01-13T09:23:02.477Z,5.37
2019-01-13T09:25:32.357Z,5.56
2019-01-13T09:28:03.558Z,5.75
2019-01-13T09:30:33.782Z,5.90
2019-01-13T09:33:05.572Z,6.03
2019-01-13T09:35:35.961Z,6.10
2019-01-13T09:38:06.776Z,6.20
2019-01-13T09:40:36.868Z,6.27
2019-01-13T09:43:06.614Z,6.38
2019-01-13T09:45:36.727Z,6.46
2019-01-13T09:48:06.467Z,6.51
2019-01-13T09:50:36.274Z,6.56
2019-01-13T09:53:08.922Z,6.64
2019-01-13T09:55:38.721Z,6.58
2019-01-13T09:58:08.588Z,6.62
2019-01-13T10:00:38.471Z,6.66
2019-01-13T10:03:08.185Z,6.76
2019-01-13T10:05:37.947Z,6.83
2019-01-13T10:08:07.798Z,6.91
2019-01-13T10:10:37.526Z,6.91
2019-01-13T10:13:07.386Z,6.82
2019-01-13T10:15:37.082Z,6.80
2019-01-13T10:18:06.928Z,6.79
2019-01-13T10:20:36.638Z,6.78
2019-01-13T10:23:06.449Z,6.76
2019-01-13T10:25:36.260Z,6.80
2019-01-13T10:28:05.944Z,6.76
2019-01-13T10:30:36.667Z,6.74
2019-01-13T10:33:06.397Z,6.85
2019-01-13T10:35:36.156Z,7.00
2019-01-13T10:38:05.921Z,7.02
2019-01-13T10:40:35.766Z,7.14
2019-01-13T10:43:06.440Z,7.21
2019-01-13T10:45:38.365Z,7.24
2019-01-13T10:48:10.344Z,7.22
2019-01-13T10:50:41.649Z,7.20
2019-01-13T10:53:11.554Z,7.14
2019-01-13T10:55:41.671Z,6.97
2019-01-13T10:58:11.422Z,6.82
2019-01-13T11:00:41.303Z,6.70
2019-01-13T11:03:11.649Z,6.69
2019-01-13T11:05:42.546Z,6.71
2019-01-13T11:08:13.197Z,6.79
2019-01-13T11:10:42.990Z,6.90
2019-01-13T11:13:12.802Z,7.15
2019-01-13T11:15:42.627Z,7.22
2019-01-13T11:18:12.551Z,7.21
2019-01-13T11:20:43.284Z,7.28
2019-01-13T11:23:13.091Z,7.37
2019-01-13T11:25:44.435Z,7.49
2019-01-13T11:28:14.288Z,7.57
2019-01-13T11:30:44.163Z,7.87
2019-01-13T11:33:13.916Z,7.73
2019-01-13T11:35:44.367Z,7.66
2019-01-13T11:38:15.416Z,7.48
2019-01-13T11:40:45.210Z,7.42
2019-01-13T11:43:15.061Z,7.42
2019-01-13T11:45:44.873Z,7.47
2019-01-13T11:48:15.369Z,7.49
2019-01-13T11:50:45.198Z,7.54
2019-01-13T11:53:14.993Z,7.65
2019-01-13T11:55:44.861Z,7.74
2019-01-13T11:58:15.798Z,7.81
2019-01-13T12:00:45.783Z,7.87
2019-01-13T12:03:16.968Z,7.88
2019-01-13T12:05:47.147Z,7.78
2019-01-13T12:08:17.513Z,7.65
2019-01-13T12:10:47.421Z,7.56
2019-01-13T12:13:18.821Z,7.52
2019-01-13T12:15:48.623Z,7.51
2019-01-13T12:18:18.371Z,7.53
2019-01-13T12:20:49.151Z,7.60
2019-01-13T12:23:19.002Z,7.68
2019-01-13T12:25:52.732Z,7.80
2019-01-13T12:28:20.318Z,7.88
2019-01-13T12:30:49.931Z,7.91
2019-01-13T12:33:24.486Z,7.93
2019-01-13T12:35:52.150Z,7.91
2019-01-13T12:38:21.977Z,7.89
2019-01-13T12:40:52.767Z,7.87
2019-01-13T12:43:23.536Z,7.89
2019-01-13T12:45:54.219Z,7.95
2019-01-13T12:48:24.242Z,7.93
2019-01-13T12:50:54.044Z,7.96
2019-01-13T12:53:24.012Z,8.00
2019-01-13T12:55:53.815Z,8.04
2019-01-13T12:58:23.445Z,8.08
2019-01-13T13:00:53.615Z,8.06
2019-01-13T13:03:31.450Z,8.03
2019-01-13T13:05:56.665Z,7.99
2019-01-13T13:08:28.988Z,8.02
2019-01-13T13:10:58.800Z,8.01
2019-01-13T13:13:28.671Z,7.99
2019-01-13T13:16:00.036Z,8.01
2019-01-13T13:18:31.477Z,8.00
2019-01-13T13:21:01.319Z,7.99
2019-01-13T13:23:31.123Z,7.98
2019-01-13T13:26:00.999Z,7.99
2019-01-13T13:28:30.793Z,7.96
2019-01-13T13:31:00.422Z,7.98
2019-01-13T13:33:30.692Z,8.01
2019-01-13T13:36:00.483Z,8.06
2019-01-13T13:38:30.406Z,8.11
2019-01-13T13:41:00.179Z,7.97
2019-01-13T13:43:31.777Z,7.87
2019-01-13T13:46:02.907Z,7.81
2019-01-13T13:48:33.652Z,7.80
2019-01-13T13:51:03.732Z,7.80
2019-01-13T13:53:35.978Z,7.77
2019-01-13T13:56:05.996Z,7.76
2019-01-13T13:58:36.185Z,7.70
2019-01-13T14:01:06.285Z,7.71
2019-01-13T14:03:36.105Z,7.81
2019-01-13T14:06:06.289Z,7.76
2019-01-13T14:08:37.636Z,7.69
2019-01-13T14:11:07.444Z,7.65
2019-01-13T14:13:37.848Z,7.65
2019-01-13T14:16:07.475Z,7.67
2019-01-13T14:18:38.867Z,7.66
2019-01-13T14:21:08.770Z,7.68
2019-01-13T14:23:38.675Z,7.78
2019-01-13T14:26:08.619Z,7.81
2019-01-13T14:28:38.461Z,7.79
2019-01-13T14:31:08.264Z,7.95
2019-01-13T14:33:38.364Z,7.93
2019-01-13T14:36:08.572Z,7.77
2019-01-13T14:38:39.052Z,7.73
2019-01-13T14:41:08.833Z,7.64
2019-01-13T14:43:38.761Z,7.61
2019-01-13T14:46:08.490Z,7.61
2019-01-13T14:48:39.206Z,7.61
2019-01-13T14:51:11.235Z,7.49
2019-01-13T14:53:42.662Z,7.34
2019-01-13T14:56:12.514Z,7.21
2019-01-13T14:58:42.295Z,7.21
2019-01-13T15:01:12.089Z,7.11
2019-01-13T15:03:41.907Z,7.01
2019-01-13T15:06:11.686Z,7.10
2019-01-13T15:08:41.586Z,7.03
2019-01-13T15:11:11.789Z,6.87
2019-01-13T15:13:41.616Z,6.63
2019-01-13T15:16:11.433Z,6.43
2019-01-13T15:18:41.266Z,6.39
2019-01-13T15:21:11.078Z,6.34
2019-01-13T15:23:41.103Z,6.27
2019-01-13T15:26:10.911Z,6.22
2019-01-13T15:28:40.672Z,6.16
2019-01-13T15:31:10.733Z,6.14
2019-01-13T15:33:40.524Z,6.05
2019-01-13T15:36:10.290Z,5.91
2019-01-13T15:38:40.077Z,5.80
2019-01-13T15:41:09.739Z,5.68
2019-01-13T15:43:39.570Z,5.65
2019-01-13T15:46:09.343Z,5.57
2019-01-13T15:48:40.526Z,5.47
2019-01-13T15:51:12.725Z,5.35
2019-01-13T15:53:43.083Z,5.26
2019-01-13T15:56:15.366Z,5.19
2019-01-13T15:58:45.875Z,5.16
2019-01-13T16:01:17.634Z,5.25
2019-01-13T16:03:52.564Z,5.19
2019-01-13T16:06:24.575Z,5.14
2019-01-13T16:08:56.039Z,5.09
2019-01-13T16:11:42.903Z,5.05
2019-01-13T16:14:14.334Z,5.01
2019-01-13T16:16:44.961Z,4.96
2019-01-13T16:19:14.675Z,4.94
2019-01-13T16:21:44.570Z,4.92
2019-01-13T16:24:18.581Z,4.85
2019-01-13T16:26:54.075Z,4.83
2019-01-13T16:29:36.483Z,4.78
2019-01-13T16:32:13.069Z,4.70
2019-01-13T16:34:43.389Z,4.66
2019-01-13T16:37:13.852Z,4.70
2019-01-13T16:39:45.078Z,4.58
2019-01-13T16:42:15.014Z,4.54
2019-01-13T16:44:47.552Z,4.50
2019-01-13T16:47:17.904Z,4.57
2019-01-13T16:49:47.823Z,4.59
2019-01-13T16:52:22.691Z,4.64
2019-01-13T16:54:52.552Z,4.84
2019-01-13T16:57:22.427Z,4.84
2019-01-13T16:59:52.078Z,5.09
2019-01-13T17:02:21.989Z,5.57
2019-01-13T17:04:51.846Z,5.48
2019-01-13T17:07:22.442Z,5.31
2019-01-13T17:09:53.376Z,5.27
2019-01-13T17:12:24.026Z,5.05
2019-01-13T17:14:54.476Z,4.87
2019-01-13T17:17:25.438Z,4.85
2019-01-13T17:19:55.495Z,4.78
2019-01-13T17:22:25.269Z,4.63
2019-01-13T17:24:55.145Z,4.67
2019-01-13T17:27:28.246Z,4.83
2019-01-13T17:29:58.436Z,4.73
2019-01-13T17:32:28.532Z,4.79
2019-01-13T17:34:58.893Z,4.88
2019-01-13T17:37:28.755Z,4.75
2019-01-13T17:39:59.881Z,4.73
2019-01-13T17:42:30.065Z,4.69
2019-01-13T17:44:59.927Z,4.46
2019-01-13T17:47:30.291Z,4.30
2019-01-13T17:50:01.286Z,4.24
2019-01-13T17:52:31.298Z,4.29
2019-01-13T17:55:01.096Z,4.20
2019-01-13T17:57:31.596Z,4.12
2019-01-13T18:00:01.975Z,4.07
2019-01-13T18:02:32.203Z,4.04
2019-01-13T18:05:03.236Z,4.08
2019-01-13T18:07:35.477Z,4.12
2019-01-13T18:10:10.023Z,4.02
2019-01-13T18:12:40.018Z,4.08
2019-01-13T18:15:12.348Z,4.08
2019-01-13T18:17:42.250Z,4.16
2019-01-13T18:20:15.085Z,4.18
2019-01-13T18:22:45.142Z,4.25
2019-01-13T18:25:14.982Z,4.36
2019-01-13T18:27:50.331Z,4.40
2019-01-13T18:30:25.789Z,4.43
2019-01-13T18:33:01.245Z,4.51
2019-01-13T18:35:31.797Z,4.60
2019-01-13T18:38:02.253Z,5.25
2019-01-13T18:40:35.321Z,5.24
2019-01-13T18:43:06.234Z,5.19
2019-01-13T18:45:40.927Z,5.15
2019-01-13T18:48:11.174Z,5.36
2019-01-13T18:50:41.442Z,5.24
2019-01-13T18:53:15.546Z,5.09
2019-01-13T18:55:45.603Z,5.02
2019-01-13T18:58:17.506Z,4.94
2019-01-13T19:00:47.935Z,4.91
2019-01-13T19:03:20.332Z,4.91
2019-01-13T19:05:53.256Z,4.70
2019-01-13T19:08:23.454Z,4.80
2019-01-13T19:11:08.011Z,5.17
2019-01-13T19:13:47.141Z,5.33
2019-01-13T19:16:23.059Z,5.43
2019-01-13T19:18:54.641Z,5.54
2019-01-13T19:21:26.764Z,5.64
2019-01-13T19:23:57.633Z,5.73
2019-01-13T19:26:29.527Z,5.78
2019-01-13T19:28:59.369Z,5.97
2019-01-13T19:31:29.370Z,5.98
2019-01-13T19:34:01.063Z,6.24
2019-01-13T19:36:30.914Z,6.05
2019-01-13T19:39:01.010Z,5.91
2019-01-13T19:41:31.948Z,5.85
2019-01-13T19:44:03.271Z,5.92
2019-01-13T19:46:33.445Z,5.91
2019-01-13T19:49:04.075Z,5.98
2019-01-13T19:51:34.251Z,5.95
2019-01-13T19:54:04.519Z,6.02
2019-01-13T19:56:34.337Z,6.04
2019-01-13T19:59:04.446Z,6.13
2019-01-13T20:01:34.391Z,6.02
2019-01-13T20:04:05.433Z,5.93
2019-01-13T20:06:35.336Z,5.84
2019-01-13T20:09:08.600Z,5.75
2019-01-13T20:11:43.985Z,5.65
2019-01-13T20:14:19.925Z,5.59
2019-01-13T20:16:54.131Z,5.54
2019-01-13T20:19:25.216Z,5.52
2019-01-13T20:21:55.240Z,5.55
2019-01-13T20:24:25.201Z,5.43
2019-01-13T20:26:55.563Z,5.36
2019-01-13T20:29:27.120Z,5.37
2019-01-13T20:31:58.454Z,5.35
2019-01-13T20:34:33.316Z,5.28
2019-01-13T20:37:06.523Z,5.33
2019-01-13T20:39:44.668Z,5.37
2019-01-13T20:42:15.645Z,5.28
2019-01-13T20:44:46.711Z,5.21
2019-01-13T20:47:20.392Z,5.14
2019-01-13T20:49:52.748Z,5.11
2019-01-13T20:52:24.325Z,5.08
2019-01-13T20:54:56.034Z,5.03
2019-01-13T20:57:27.263Z,4.96
2019-01-13T21:00:07.225Z,4.91
2019-01-13T21:02:41.337Z,4.88
2019-01-13T21:05:14.443Z,4.87
2019-01-13T21:07:44.736Z,4.84
2019-01-13T21:10:21.195Z,4.81
2019-01-13T21:12:54.716Z,4.81
2019-01-13T21:15:30.472Z,4.78
2019-01-13T21:18:02.274Z,4.70
2019-01-13T21:20:37.702Z,4.61
2019-01-13T21:23:09.080Z,4.59
2019-01-13T21:25:39.882Z,4.41
2019-01-13T21:28:17.698Z,4.43
2019-01-13T21:30:47.996Z,4.27
2019-01-13T21:33:18.824Z,4.19
2019-01-13T21:35:57.055Z,4.14
2019-01-13T21:38:27.825Z,4.08
2019-01-13T21:40:58.217Z,4.03
2019-01-13T21:43:30.237Z,3.99
2019-01-13T21:46:05.880Z,4.00
2019-01-13T21:48:48.490Z,4.14
2019-01-13T21:51:20.171Z,4.00
2019-01-13T21:53:51.269Z,3.92
2019-01-13T21:56:26.538Z,3.86
2019-01-13T21:58:57.777Z,3.82
2019-01-13T22:01:27.683Z,3.81
2019-01-13T22:04:04.718Z,3.74
2019-01-13T22:06:35.558Z,3.61
2019-01-13T22:09:09.320Z,3.61
2019-01-13T22:11:39.489Z,3.51
2019-01-13T22:14:10.986Z,3.44
2019-01-13T22:16:41.336Z,3.39
2019-01-13T22:19:11.464Z,3.36
2019-01-13T22:21:45.073Z,3.28
2019-01-13T22:24:16.975Z,3.25
2019-01-13T22:26:47.956Z,3.16
2019-01-13T22:29:21.126Z,3.06
2019-01-13T22:31:52.640Z,2.99
2019-01-13T22:34:25.090Z,2.90
2019-01-13T22:36:57.780Z,3.04
2019-01-13T22:39:29.623Z,2.97
2019-01-13T22:42:05.263Z,2.89
2019-01-13T22:44:35.554Z,2.87
2019-01-13T22:47:08.498Z,2.89
2019-01-13T22:49:45.074Z,2.92
2019-01-13T22:52:19.153Z,2.99
2019-01-13T22:54:55.535Z,3.02
2019-01-13T22:57:31.937Z,2.14
2019-01-13T23:00:09.695Z,3.01
2019-01-13T23:02:45.490Z,2.97
2019-01-13T23:05:19.472Z,2.92
2019-01-13T23:07:56.323Z,2.93
2019-01-13T23:10:32.971Z,3.02
2019-01-13T23:13:07.824Z,2.92
2019-01-13T23:15:44.500Z,2.85
2019-01-13T23:18:19.457Z,2.83
2019-01-13T23:20:57.536Z,2.81
2019-01-13T23:23:33.594Z,2.82
2019-01-13T23:26:09.783Z,2.81
2019-01-13T23:28:49.026Z,2.84
2019-01-13T23:31:28.792Z,2.85
2019-01-13T23:34:06.372Z,2.89
2019-01-13T23:36:44.819Z,2.83
2019-01-13T23:39:27.676Z,2.86
2019-01-13T23:42:03.190Z,2.78
2019-01-13T23:44:40.570Z,2.72
2019-01-13T23:47:18.177Z,2.72
2019-01-13T23:49:57.026Z,2.76
2019-01-13T23:52:35.582Z,2.79
2019-01-13T23:55:13.245Z,2.85
2019-01-13T23:57:51.225Z,2.87
